createdAt,value
2022-11-20T00:00:22.831Z,1.93
2022-11-20T00:01:22.806Z,1.91
2022-11-20T00:02:22.914Z,1.97
2022-11-20T00:03:22.782Z,1.99
2022-11-20T00:04:22.795Z,2.03
2022-11-20T00:05:22.754Z,2.06
2022-11-20T00:06:22.754Z,2.12
2022-11-20T00:07:22.802Z,2.18
2022-11-20T00:08:22.765Z,2.22
2022-11-20T00:09:23.099Z,2.25
2022-11-20T00:10:22.738Z,2.36
2022-11-20T00:11:22.779Z,2.48
2022-11-20T00:12:22.677Z,2.51
2022-11-20T00:13:22.691Z,2.57
2022-11-20T00:14:22.705Z,2.55
2022-11-20T00:15:22.652Z,2.60
2022-11-20T00:16:22.706Z,2.63
2022-11-20T00:17:22.723Z,2.65
2022-11-20T00:18:22.660Z,2.66
2022-11-20T00:19:23.105Z,2.68
2022-11-20T00:20:22.625Z,2.68
2022-11-20T00:21:22.600Z,2.69
2022-11-20T00:22:22.603Z,2.71
2022-11-20T00:23:22.619Z,2.75
2022-11-20T00:24:22.644Z,2.75
2022-11-20T00:25:22.598Z,2.76
2022-11-20T00:26:22.558Z,2.76
2022-11-20T00:27:22.558Z,2.75
2022-11-20T00:28:22.576Z,2.76
2022-11-20T00:29:22.796Z,2.79
2022-11-20T00:30:22.494Z,2.78
2022-11-20T00:31:22.495Z,2.81
2022-11-20T00:32:22.489Z,2.79
2022-11-20T00:33:22.484Z,2.82
2022-11-20T00:34:22.481Z,2.81
2022-11-20T00:35:22.454Z,2.81
2022-11-20T00:36:22.449Z,2.84
2022-11-20T00:37:22.463Z,2.84
2022-11-20T00:38:22.403Z,2.87
2022-11-20T00:39:22.807Z,2.86
2022-11-20T00:40:22.419Z,2.86
2022-11-20T00:41:22.421Z,2.87
2022-11-20T00:42:22.417Z,2.84
2022-11-20T00:43:22.360Z,2.86
2022-11-20T00:44:22.367Z,2.87
2022-11-20T00:45:22.392Z,2.89
2022-11-20T00:46:22.374Z,2.90
2022-11-20T00:47:22.317Z,2.93
2022-11-20T00:48:22.306Z,2.91
2022-11-20T00:49:22.691Z,2.93
2022-11-20T00:50:22.317Z,2.93
2022-11-20T00:51:22.327Z,2.93
2022-11-20T00:52:22.281Z,2.94
2022-11-20T00:53:22.292Z,2.97
2022-11-20T00:54:22.244Z,2.99
2022-11-20T00:55:22.253Z,2.97
2022-11-20T00:56:22.219Z,2.93
2022-11-20T00:57:22.238Z,2.90
2022-11-20T00:58:22.226Z,2.87
2022-11-20T00:59:22.558Z,2.81
2022-11-20T01:00:22.184Z,2.78
2022-11-20T01:01:22.222Z,2.75
2022-11-20T01:02:22.158Z,2.76
2022-11-20T01:03:26.804Z,2.75
2022-11-20T01:04:23.960Z,2.73
2022-11-20T01:05:22.152Z,2.75
2022-11-20T01:06:22.122Z,2.76
2022-11-20T01:07:22.201Z,2.79
2022-11-20T01:08:22.110Z,2.79
2022-11-20T01:09:22.389Z,2.76
2022-11-20T01:10:22.101Z,2.75
2022-11-20T01:11:22.083Z,2.81
2022-11-20T01:12:22.059Z,2.87
2022-11-20T01:13:25.674Z,2.87
2022-11-20T01:14:22.092Z,2.84
2022-11-20T01:15:22.072Z,2.82
2022-11-20T01:16:22.041Z,2.81
2022-11-20T01:17:26.946Z,2.78
2022-11-20T01:18:21.991Z,2.73
2022-11-20T01:19:22.369Z,2.72
2022-11-20T01:20:21.971Z,2.72
2022-11-20T01:21:22.947Z,2.72
2022-11-20T01:22:21.991Z,2.72
2022-11-20T01:23:22.446Z,2.78
2022-11-20T01:24:21.932Z,2.79
2022-11-20T01:25:22.000Z,2.81
2022-11-20T01:26:21.910Z,2.82
2022-11-20T01:27:22.439Z,2.84
2022-11-20T01:28:21.921Z,2.90
2022-11-20T01:29:22.271Z,2.94
2022-11-20T01:30:21.865Z,2.96
2022-11-20T01:31:21.971Z,2.99
2022-11-20T01:32:21.905Z,3.00
2022-11-20T01:33:21.838Z,3.04
2022-11-20T01:34:22.448Z,3.07
2022-11-20T01:35:21.804Z,3.07
2022-11-20T01:36:21.820Z,3.09
2022-11-20T01:37:21.857Z,3.09
2022-11-20T01:38:21.783Z,3.22
2022-11-20T01:39:22.097Z,3.25
2022-11-20T01:40:21.773Z,3.23
2022-11-20T01:41:21.862Z,3.22
2022-11-20T01:42:21.755Z,3.20
2022-11-20T01:43:21.807Z,3.18
2022-11-20T01:44:21.740Z,3.17
2022-11-20T01:45:21.718Z,3.12
2022-11-20T01:46:21.695Z,3.12
2022-11-20T01:47:21.736Z,3.14
2022-11-20T01:48:21.711Z,3.14
2022-11-20T01:49:21.917Z,3.14
2022-11-20T01:50:21.655Z,3.14
2022-11-20T01:51:21.713Z,3.11
2022-11-20T01:52:21.738Z,3.12
2022-11-20T01:53:21.633Z,3.15
2022-11-20T01:54:21.655Z,3.20
2022-11-20T01:55:21.603Z,3.18
2022-11-20T01:56:21.604Z,3.20
2022-11-20T01:57:21.607Z,3.17
2022-11-20T01:58:21.590Z,3.15
2022-11-20T01:59:21.873Z,3.15
2022-11-20T02:00:21.713Z,3.15
2022-11-20T02:01:21.581Z,3.12
2022-11-20T02:02:21.527Z,3.11
2022-11-20T02:03:21.540Z,3.12
2022-11-20T02:04:21.559Z,3.09
2022-11-20T02:05:21.529Z,3.11
2022-11-20T02:06:21.490Z,3.11
2022-11-20T02:07:22.104Z,3.11
2022-11-20T02:08:21.531Z,3.11
2022-11-20T02:09:21.765Z,3.11
2022-11-20T02:10:21.451Z,3.09
2022-11-20T02:11:21.441Z,3.14
2022-11-20T02:12:21.429Z,3.22
2022-11-20T02:13:21.502Z,3.27
2022-11-20T02:14:21.424Z,3.27
2022-11-20T02:15:23.229Z,3.26
2022-11-20T02:16:21.387Z,3.23
2022-11-20T02:17:26.002Z,3.18
2022-11-20T02:18:21.358Z,3.15
2022-11-20T02:19:21.685Z,3.12
2022-11-20T02:20:21.330Z,3.09
2022-11-20T02:21:28.864Z,3.09
2022-11-20T02:22:21.327Z,3.09
2022-11-20T02:23:21.334Z,3.07
2022-11-20T02:24:21.337Z,3.04
2022-11-20T02:25:21.280Z,3.04
2022-11-20T02:26:21.318Z,3.07
2022-11-20T02:27:21.283Z,3.12
2022-11-20T02:28:21.499Z,3.14
2022-11-20T02:29:22.225Z,3.17
2022-11-20T02:30:21.232Z,3.17
2022-11-20T02:31:21.304Z,3.22
2022-11-20T02:32:21.268Z,3.29
2022-11-20T02:33:21.250Z,3.30
2022-11-20T02:34:21.278Z,3.33
2022-11-20T02:35:21.316Z,3.30
2022-11-20T02:36:21.181Z,3.32
2022-11-20T02:37:21.177Z,3.33
2022-11-20T02:38:21.155Z,3.30
2022-11-20T02:39:21.573Z,3.30
2022-11-20T02:40:21.176Z,3.30
2022-11-20T02:41:21.154Z,3.32
2022-11-20T02:42:21.139Z,3.30
2022-11-20T02:43:21.088Z,3.35
2022-11-20T02:44:21.087Z,3.41
2022-11-20T02:45:21.071Z,3.55
2022-11-20T02:46:21.081Z,3.56
2022-11-20T02:47:26.055Z,3.59
2022-11-20T02:48:21.087Z,3.56
2022-11-20T02:49:21.502Z,3.59
2022-11-20T02:50:21.028Z,3.56
2022-11-20T02:51:21.008Z,3.55
2022-11-20T02:52:21.277Z,3.55
2022-11-20T02:53:21.057Z,3.60
2022-11-20T02:54:21.025Z,3.62
2022-11-20T02:55:21.014Z,3.63
2022-11-20T02:56:20.971Z,3.64
2022-11-20T02:57:20.942Z,3.66
2022-11-20T02:58:20.936Z,3.66
2022-11-20T02:59:21.233Z,3.64
2022-11-20T03:00:20.942Z,3.63
2022-11-20T03:01:20.968Z,3.64
2022-11-20T03:02:20.919Z,3.66
2022-11-20T03:03:20.888Z,3.67
2022-11-20T03:04:20.886Z,3.72
2022-11-20T03:05:20.961Z,3.70
2022-11-20T03:06:20.861Z,3.69
2022-11-20T03:07:20.918Z,3.67
2022-11-20T03:08:20.867Z,3.67
2022-11-20T03:09:21.220Z,3.66
2022-11-20T03:10:20.807Z,3.66
2022-11-20T03:11:20.851Z,3.67
2022-11-20T03:12:20.833Z,3.66
2022-11-20T03:13:20.949Z,3.66
2022-11-20T03:14:20.764Z,3.67
2022-11-20T03:15:20.751Z,3.70
2022-11-20T03:16:20.753Z,3.70
2022-11-20T03:17:20.785Z,3.67
2022-11-20T03:18:20.728Z,3.66
2022-11-20T03:19:21.098Z,3.66
2022-11-20T03:20:20.750Z,3.66
2022-11-20T03:21:20.707Z,3.69
2022-11-20T03:22:20.703Z,3.73
2022-11-20T03:23:20.697Z,3.72
2022-11-20T03:24:20.717Z,3.74
2022-11-20T03:25:20.709Z,3.74
2022-11-20T03:26:20.644Z,3.76
2022-11-20T03:27:20.628Z,3.74
2022-11-20T03:28:20.687Z,3.74
2022-11-20T03:29:20.944Z,3.73
2022-11-20T03:30:20.611Z,3.72
2022-11-20T03:31:20.609Z,3.70
2022-11-20T03:32:20.598Z,3.70
2022-11-20T03:33:20.570Z,3.69
2022-11-20T03:34:20.562Z,3.67
2022-11-20T03:35:20.543Z,3.67
2022-11-20T03:36:20.567Z,3.69
2022-11-20T03:37:20.548Z,3.69
2022-11-20T03:38:20.520Z,3.67
2022-11-20T03:39:20.792Z,3.67
2022-11-20T03:40:20.515Z,3.66
2022-11-20T03:41:20.546Z,3.64
2022-11-20T03:42:20.467Z,3.63
2022-11-20T03:43:20.464Z,3.63
2022-11-20T03:44:20.472Z,3.63
2022-11-20T03:45:20.490Z,3.63
2022-11-20T03:46:20.447Z,3.63
2022-11-20T03:47:25.015Z,3.64
2022-11-20T03:48:20.480Z,3.63
2022-11-20T03:49:20.685Z,3.66
2022-11-20T03:50:20.388Z,3.66
2022-11-20T03:51:20.373Z,3.67
2022-11-20T03:52:20.393Z,3.67
2022-11-20T03:53:20.514Z,3.66
2022-11-20T03:54:20.370Z,3.67
2022-11-20T03:55:20.405Z,3.67
2022-11-20T03:56:20.324Z,3.67
2022-11-20T03:57:20.318Z,3.69
2022-11-20T03:58:20.326Z,3.70
2022-11-20T03:59:20.680Z,3.67
2022-11-20T04:00:20.497Z,3.72
2022-11-20T04:01:20.336Z,3.73
2022-11-20T04:02:20.300Z,3.73
2022-11-20T04:03:20.270Z,3.73
2022-11-20T04:04:20.251Z,3.74
2022-11-20T04:05:20.252Z,3.73
2022-11-20T04:06:20.248Z,3.72
2022-11-20T04:07:20.309Z,3.70
2022-11-20T04:08:20.197Z,3.73
2022-11-20T04:09:20.520Z,3.76
2022-11-20T04:10:20.188Z,3.74
2022-11-20T04:11:20.163Z,3.73
2022-11-20T04:12:20.152Z,3.73
2022-11-20T04:13:20.143Z,3.73
2022-11-20T04:14:20.152Z,3.72
2022-11-20T04:15:20.124Z,3.72
2022-11-20T04:16:20.130Z,3.72
2022-11-20T04:17:20.135Z,3.70
2022-11-20T04:18:20.109Z,3.69
2022-11-20T04:19:20.591Z,3.67
2022-11-20T04:20:20.077Z,3.66
2022-11-20T04:21:20.063Z,3.67
2022-11-20T04:22:20.052Z,3.66
2022-11-20T04:23:22.382Z,3.64
2022-11-20T04:24:21.523Z,3.63
2022-11-20T04:25:20.063Z,3.62
2022-11-20T04:26:20.023Z,3.62
2022-11-20T04:27:20.060Z,3.63
2022-11-20T04:28:19.989Z,3.60
2022-11-20T04:29:20.281Z,3.63
2022-11-20T04:30:19.966Z,3.63
2022-11-20T04:31:19.953Z,3.63
2022-11-20T04:32:19.974Z,3.63
2022-11-20T04:33:19.958Z,3.63
2022-11-20T04:34:19.962Z,3.63
2022-11-20T04:35:19.959Z,3.62
2022-11-20T04:36:19.915Z,3.63
2022-11-20T04:37:19.894Z,3.60
2022-11-20T04:38:19.937Z,3.62
2022-11-20T04:39:20.360Z,3.60
2022-11-20T04:40:19.863Z,3.64
2022-11-20T04:41:19.914Z,3.62
2022-11-20T04:42:19.893Z,3.64
2022-11-20T04:43:19.846Z,3.64
2022-11-20T04:44:19.813Z,3.64
2022-11-20T04:45:19.814Z,3.64
2022-11-20T04:46:19.834Z,3.66
2022-11-20T04:47:19.799Z,3.63
2022-11-20T04:48:19.820Z,3.63
2022-11-20T04:49:20.275Z,3.60
2022-11-20T04:50:19.756Z,3.60
2022-11-20T04:51:19.808Z,3.63
2022-11-20T04:52:19.772Z,3.63
2022-11-20T04:53:19.779Z,3.63
2022-11-20T04:54:19.758Z,3.66
2022-11-20T04:55:19.724Z,3.63
2022-11-20T04:56:19.760Z,3.62
2022-11-20T04:57:19.683Z,3.63
2022-11-20T04:58:19.725Z,3.62
2022-11-20T04:59:20.029Z,3.62
2022-11-20T05:00:19.659Z,3.63
2022-11-20T05:01:19.691Z,3.63
2022-11-20T05:02:19.670Z,3.64
2022-11-20T05:03:19.623Z,3.64
2022-11-20T05:04:19.620Z,3.69
2022-11-20T05:05:19.594Z,3.63
2022-11-20T05:06:19.585Z,3.64
2022-11-20T05:07:19.699Z,3.63
2022-11-20T05:08:19.631Z,3.66
2022-11-20T05:09:19.909Z,3.67
2022-11-20T05:10:19.568Z,3.66
2022-11-20T05:11:19.539Z,3.63
2022-11-20T05:12:19.526Z,3.63
2022-11-20T05:13:19.997Z,3.67
2022-11-20T05:14:19.599Z,3.67
2022-11-20T05:15:19.496Z,3.63
2022-11-20T05:16:19.478Z,3.62
2022-11-20T05:17:19.503Z,3.59
2022-11-20T05:18:19.461Z,3.56
2022-11-20T05:19:19.913Z,3.55
2022-11-20T05:20:19.495Z,3.51
2022-11-20T05:21:19.430Z,3.46
2022-11-20T05:22:19.422Z,3.44
2022-11-20T05:23:19.408Z,3.37
2022-11-20T05:24:19.394Z,3.35
2022-11-20T05:25:19.417Z,3.33
2022-11-20T05:26:19.460Z,3.37
2022-11-20T05:27:19.392Z,3.41
2022-11-20T05:28:19.406Z,3.41
2022-11-20T05:29:19.632Z,3.36
2022-11-20T05:30:19.354Z,3.36
2022-11-20T05:31:25.062Z,3.36
2022-11-20T05:32:20.327Z,3.37
2022-11-20T05:33:19.307Z,3.32
2022-11-20T05:34:19.319Z,3.30
2022-11-20T05:35:19.275Z,3.29
2022-11-20T05:36:19.268Z,3.29
2022-11-20T05:37:19.259Z,3.26
2022-11-20T05:38:19.249Z,3.22
2022-11-20T05:39:19.838Z,3.14
2022-11-20T05:40:19.243Z,3.09
2022-11-20T05:41:19.220Z,3.07
2022-11-20T05:42:19.231Z,3.08
2022-11-20T05:43:19.208Z,3.11
2022-11-20T05:44:19.199Z,3.17
2022-11-20T05:45:19.228Z,3.12
2022-11-20T05:46:21.260Z,3.09
2022-11-20T05:47:20.181Z,3.00
2022-11-20T05:48:19.165Z,2.94
2022-11-20T05:49:19.286Z,2.90
2022-11-20T05:50:19.200Z,2.91
2022-11-20T05:51:19.183Z,2.93
2022-11-20T05:52:19.119Z,2.89
2022-11-20T05:53:19.208Z,2.93
2022-11-20T05:54:19.104Z,2.96
2022-11-20T05:55:19.099Z,2.96
2022-11-20T05:56:19.078Z,2.96
2022-11-20T05:57:19.061Z,2.91
2022-11-20T05:58:19.036Z,2.89
2022-11-20T05:59:19.943Z,2.87
2022-11-20T06:00:19.032Z,2.90
2022-11-20T06:01:19.016Z,2.97
2022-11-20T06:02:19.093Z,2.97
2022-11-20T06:03:18.994Z,3.00
2022-11-20T06:04:19.047Z,3.07
2022-11-20T06:05:19.023Z,3.08
2022-11-20T06:06:18.985Z,3.11
2022-11-20T06:07:19.067Z,3.11
2022-11-20T06:08:18.971Z,3.09
2022-11-20T06:09:19.317Z,3.09
2022-11-20T06:10:18.921Z,3.05
2022-11-20T06:11:18.946Z,3.08
2022-11-20T06:12:18.936Z,3.08
2022-11-20T06:13:19.500Z,3.08
2022-11-20T06:14:18.890Z,3.12
2022-11-20T06:15:18.946Z,3.18
2022-11-20T06:16:18.859Z,3.17
2022-11-20T06:17:23.540Z,3.23
2022-11-20T06:18:18.855Z,3.20
2022-11-20T06:19:19.029Z,3.18
2022-11-20T06:20:18.830Z,3.15
2022-11-20T06:21:18.801Z,3.14
2022-11-20T06:22:18.789Z,3.15
2022-11-20T06:23:18.816Z,3.17
2022-11-20T06:24:18.800Z,3.23
2022-11-20T06:25:23.060Z,3.20
2022-11-20T06:26:18.814Z,3.25
2022-11-20T06:27:18.742Z,3.23
2022-11-20T06:28:18.778Z,3.26
2022-11-20T06:29:18.925Z,3.26
2022-11-20T06:30:18.701Z,3.26
2022-11-20T06:31:18.698Z,3.27
2022-11-20T06:32:18.776Z,3.29
2022-11-20T06:33:18.684Z,3.30
2022-11-20T06:34:18.669Z,3.29
2022-11-20T06:35:18.711Z,3.30
2022-11-20T06:36:18.675Z,3.32
2022-11-20T06:37:18.628Z,3.29
2022-11-20T06:38:18.660Z,3.30
2022-11-20T06:39:18.804Z,3.32
2022-11-20T06:40:18.611Z,3.32
2022-11-20T06:41:18.626Z,3.33
2022-11-20T06:42:18.593Z,3.32
2022-11-20T06:43:18.594Z,3.35
2022-11-20T06:44:18.558Z,3.32
2022-11-20T06:45:18.548Z,3.37
2022-11-20T06:46:18.598Z,3.37
2022-11-20T06:47:23.542Z,3.41
2022-11-20T06:48:18.518Z,3.42
2022-11-20T06:49:18.583Z,3.42
2022-11-20T06:50:18.528Z,3.44
2022-11-20T06:51:18.565Z,3.45
2022-11-20T06:52:18.469Z,3.48
2022-11-20T06:53:18.472Z,3.45
2022-11-20T06:54:18.474Z,3.46
2022-11-20T06:55:18.451Z,3.46
2022-11-20T06:56:18.457Z,3.45
2022-11-20T06:57:18.427Z,3.49
2022-11-20T06:58:18.438Z,3.49
2022-11-20T06:59:18.439Z,3.52
2022-11-20T07:00:18.393Z,3.54
2022-11-20T07:01:18.418Z,3.55
2022-11-20T07:02:18.363Z,3.55
2022-11-20T07:03:18.368Z,3.60
2022-11-20T07:04:18.440Z,3.59
2022-11-20T07:05:18.417Z,3.63
2022-11-20T07:06:18.336Z,3.63
2022-11-20T07:07:18.396Z,3.63
2022-11-20T07:08:18.314Z,3.63
2022-11-20T07:09:18.298Z,3.66
2022-11-20T07:10:18.302Z,3.67
2022-11-20T07:11:18.324Z,3.69
2022-11-20T07:12:18.269Z,3.70
2022-11-20T07:13:18.270Z,3.72
2022-11-20T07:14:18.254Z,3.72
2022-11-20T07:15:18.231Z,3.70
2022-11-20T07:16:18.234Z,3.73
2022-11-20T07:17:23.038Z,3.73
2022-11-20T07:18:18.193Z,3.73
2022-11-20T07:19:18.329Z,3.76
2022-11-20T07:20:18.175Z,3.78
2022-11-20T07:21:18.169Z,3.80
2022-11-20T07:23:32.231Z,3.84
2022-11-20T07:24:31.747Z,3.82
2022-11-20T07:25:31.741Z,3.85
2022-11-20T07:26:31.723Z,3.88
2022-11-20T07:27:31.730Z,3.90
2022-11-20T07:28:31.717Z,3.87
2022-11-20T07:29:31.682Z,3.88
2022-11-20T07:30:31.699Z,3.91
2022-11-20T07:31:31.741Z,3.92
2022-11-20T07:32:31.643Z,3.98
2022-11-20T07:33:31.637Z,3.94
2022-11-20T07:34:31.639Z,3.94
2022-11-20T07:35:31.620Z,3.98
2022-11-20T07:36:31.604Z,4.02
2022-11-20T07:37:31.632Z,4.03
2022-11-20T07:38:31.621Z,4.06
2022-11-20T07:39:31.593Z,4.08
2022-11-20T07:40:31.554Z,4.09
2022-11-20T07:41:31.575Z,4.17
2022-11-20T07:42:31.569Z,4.30
2022-11-20T07:43:31.543Z,4.39
2022-11-20T07:44:31.524Z,4.49
2022-11-20T07:45:31.518Z,4.49
2022-11-20T07:46:32.189Z,4.38
2022-11-20T07:47:31.532Z,4.31
2022-11-20T07:48:31.481Z,4.26
2022-11-20T07:49:31.509Z,4.30
2022-11-20T07:50:31.451Z,4.28
2022-11-20T07:51:31.453Z,4.28
2022-11-20T07:52:31.451Z,4.28
2022-11-20T07:53:31.453Z,4.28
2022-11-20T07:54:31.413Z,4.26
2022-11-20T07:55:31.441Z,4.34
2022-11-20T07:56:31.452Z,4.35
2022-11-20T07:57:31.475Z,4.35
2022-11-20T07:58:31.386Z,4.36
2022-11-20T07:59:31.381Z,4.35
2022-11-20T08:00:31.464Z,4.42
2022-11-20T08:01:31.351Z,4.49
2022-11-20T08:02:31.377Z,4.51
2022-11-20T08:03:31.329Z,4.46
2022-11-20T08:04:31.324Z,4.53
2022-11-20T08:05:31.307Z,4.64
2022-11-20T08:06:31.291Z,4.66
2022-11-20T08:07:31.457Z,4.63
2022-11-20T08:08:33.811Z,4.67
2022-11-20T08:09:31.310Z,4.79
2022-11-20T08:10:31.248Z,4.77
2022-11-20T08:11:31.253Z,4.79
2022-11-20T08:12:31.232Z,4.88
2022-11-20T08:13:31.231Z,4.89
2022-11-20T08:14:31.261Z,4.85
2022-11-20T08:15:31.201Z,4.85
2022-11-20T08:16:31.188Z,4.83
2022-11-20T08:17:31.184Z,4.77
2022-11-20T08:18:32.669Z,4.74
2022-11-20T08:19:31.161Z,4.66
2022-11-20T08:20:31.163Z,4.69
2022-11-20T08:21:36.707Z,4.63
2022-11-20T08:22:32.133Z,4.77
2022-11-20T08:23:31.127Z,4.67
2022-11-20T08:24:31.160Z,4.61
2022-11-20T08:25:31.094Z,4.74
2022-11-20T08:26:31.079Z,4.82
2022-11-20T08:27:31.078Z,4.74
2022-11-20T08:28:31.084Z,4.77
2022-11-20T08:29:31.140Z,4.91
2022-11-20T08:30:31.039Z,4.86
2022-11-20T08:31:31.044Z,4.77
2022-11-20T08:32:31.028Z,4.86
2022-11-20T08:33:31.059Z,4.89
2022-11-20T08:34:31.055Z,4.96
2022-11-20T08:35:31.022Z,5.00
2022-11-20T08:36:31.006Z,5.06
2022-11-20T08:37:30.979Z,5.12
2022-11-20T08:38:31.000Z,5.37
2022-11-20T08:39:30.954Z,5.94
2022-11-20T08:40:30.935Z,5.97
2022-11-20T08:41:30.931Z,5.32
2022-11-20T08:42:30.938Z,5.40
2022-11-20T08:43:30.937Z,5.29
2022-11-20T08:44:30.895Z,5.11
2022-11-20T08:45:34.192Z,5.07
2022-11-20T08:46:30.896Z,5.06
2022-11-20T08:47:35.795Z,5.21
2022-11-20T08:48:30.867Z,5.41
2022-11-20T08:49:30.858Z,5.59
2022-11-20T08:50:30.856Z,6.30
2022-11-20T08:51:30.890Z,7.43
2022-11-20T08:52:32.554Z,6.52
2022-11-20T08:53:30.847Z,6.02
2022-11-20T08:54:30.797Z,5.91
2022-11-20T08:55:31.721Z,5.97
2022-11-20T08:56:30.821Z,5.84
2022-11-20T08:57:30.755Z,5.54
2022-11-20T08:58:31.192Z,5.57
2022-11-20T09:00:03.884Z,5.62
2022-11-20T09:00:31.750Z,5.65
2022-11-20T09:01:30.868Z,6.16
2022-11-20T09:02:30.720Z,6.91
2022-11-20T09:03:33.004Z,7.10
2022-11-20T09:04:30.721Z,7.40
2022-11-20T09:05:31.258Z,7.10
2022-11-20T09:06:30.677Z,7.74
2022-11-20T09:07:30.735Z,8.20
2022-11-20T09:08:30.650Z,8.75
2022-11-20T09:09:30.649Z,10.10
2022-11-20T09:10:30.631Z,10.57
2022-11-20T09:11:30.618Z,10.86
2022-11-20T09:12:30.664Z,9.96
2022-11-20T09:13:30.602Z,9.48
2022-11-20T09:14:30.579Z,9.33
2022-11-20T09:15:30.581Z,9.85
2022-11-20T09:16:30.552Z,9.66
2022-11-20T09:17:30.586Z,9.72
2022-11-20T09:18:30.533Z,9.50
2022-11-20T09:19:37.754Z,9.52
2022-11-20T09:20:31.542Z,10.75
2022-11-20T09:21:30.547Z,12.41
2022-11-20T09:22:30.528Z,12.28
2022-11-20T09:23:30.491Z,13.08
2022-11-20T09:24:30.543Z,13.61
2022-11-20T09:25:30.463Z,13.96
2022-11-20T09:26:30.452Z,14.70
2022-11-20T09:27:30.452Z,15.12
2022-11-20T09:28:30.441Z,15.12
2022-11-20T09:29:30.460Z,13.75
2022-11-20T09:30:30.752Z,12.87
2022-11-20T09:31:30.438Z,11.25
2022-11-20T09:32:30.454Z,10.76
2022-11-20T09:33:30.426Z,10.48
2022-11-20T09:34:30.367Z,10.60
2022-11-20T09:35:30.368Z,11.85
2022-11-20T09:36:30.349Z,11.89
2022-11-20T09:37:30.372Z,11.11
2022-11-20T09:38:30.390Z,10.42
2022-11-20T09:39:30.324Z,10.35
2022-11-20T09:40:30.374Z,10.36
2022-11-20T09:41:30.369Z,10.03
2022-11-20T09:42:30.294Z,9.30
2022-11-20T09:43:33.773Z,10.21
2022-11-20T09:44:31.273Z,10.75
2022-11-20T09:45:30.255Z,9.80
2022-11-20T09:46:30.319Z,10.41
2022-11-20T09:47:30.264Z,11.56
2022-11-20T09:48:30.266Z,12.65
2022-11-20T09:49:32.660Z,12.48
2022-11-20T09:50:30.214Z,12.40
2022-11-20T09:51:30.196Z,12.17
2022-11-20T09:52:30.270Z,12.51
2022-11-20T09:53:30.264Z,12.51
2022-11-20T09:54:30.195Z,11.09
2022-11-20T09:55:30.275Z,10.91
2022-11-20T09:56:30.134Z,11.15
2022-11-20T09:57:30.134Z,12.35
2022-11-20T09:58:30.735Z,12.50
2022-11-20T09:59:30.108Z,12.88
2022-11-20T10:00:30.131Z,12.50
2022-11-20T10:01:30.154Z,12.15
2022-11-20T10:02:30.082Z,12.07
2022-11-20T10:03:30.073Z,11.76
2022-11-20T10:04:30.054Z,12.26
2022-11-20T10:05:30.062Z,12.03
2022-11-20T10:06:30.064Z,12.86
2022-11-20T10:07:32.702Z,14.31
2022-11-20T10:08:30.024Z,13.96
2022-11-20T10:09:30.026Z,14.04
2022-11-20T10:10:29.980Z,12.83
2022-11-20T10:11:30.740Z,13.04
2022-11-20T10:12:29.985Z,11.15
2022-11-20T10:13:30.007Z,10.68
2022-11-20T10:14:29.950Z,11.00
2022-11-20T10:15:30.745Z,9.83
2022-11-20T10:16:29.962Z,9.63
2022-11-20T10:17:29.996Z,8.60
2022-11-20T10:18:29.929Z,7.76
2022-11-20T10:19:29.925Z,8.04
2022-11-20T10:20:29.882Z,7.77
2022-11-20T10:21:29.875Z,7.46
2022-11-20T10:22:29.906Z,7.36
2022-11-20T10:23:29.855Z,7.10
2022-11-20T10:24:29.899Z,7.43
2022-11-20T10:25:29.886Z,7.55
2022-11-20T10:26:29.826Z,7.21
2022-11-20T10:27:29.803Z,7.03
2022-11-20T10:28:29.805Z,6.68
2022-11-20T10:29:29.792Z,6.42
2022-11-20T10:30:29.886Z,6.30
2022-11-20T10:31:29.801Z,6.28
2022-11-20T10:32:29.753Z,6.05
2022-11-20T10:33:50.123Z,6.09
2022-11-20T10:34:30.738Z,6.32
2022-11-20T10:35:29.775Z,8.14
2022-11-20T10:36:29.724Z,7.83
2022-11-20T10:37:29.744Z,8.53
2022-11-20T10:38:29.725Z,10.03
2022-11-20T10:39:29.690Z,10.67
2022-11-20T10:40:29.684Z,9.98
2022-11-20T10:41:31.920Z,10.76
2022-11-20T10:42:29.712Z,10.82
2022-11-20T10:43:29.657Z,9.37
2022-11-20T10:44:29.722Z,11.18
2022-11-20T10:45:29.637Z,10.91
2022-11-20T10:46:29.653Z,10.90
2022-11-20T10:47:34.266Z,9.30
2022-11-20T10:48:29.741Z,8.31
2022-11-20T10:49:29.636Z,7.73
2022-11-20T10:50:29.681Z,7.31
2022-11-20T10:51:29.626Z,7.69
2022-11-20T10:52:29.604Z,8.70
2022-11-20T10:53:29.586Z,7.94
2022-11-20T10:54:29.726Z,7.58
2022-11-20T10:55:29.558Z,7.40
2022-11-20T10:56:29.575Z,7.31
2022-11-20T10:57:29.553Z,7.43
2022-11-20T10:58:29.499Z,7.49
2022-11-20T10:59:29.480Z,9.55
2022-11-20T11:00:29.563Z,9.67
2022-11-20T11:01:29.510Z,9.12
2022-11-20T11:02:29.532Z,8.13
2022-11-20T11:03:29.444Z,8.75
2022-11-20T11:04:29.534Z,9.54
2022-11-20T11:05:29.403Z,10.38
2022-11-20T11:06:29.436Z,9.14
2022-11-20T11:07:29.429Z,8.96
2022-11-20T11:08:29.400Z,8.90
2022-11-20T11:09:29.369Z,8.21
2022-11-20T11:10:29.396Z,7.81
2022-11-20T11:11:29.364Z,7.64
2022-11-20T11:12:29.355Z,7.64
2022-11-20T11:13:29.341Z,7.77
2022-11-20T11:14:29.342Z,8.26
2022-11-20T11:15:29.314Z,8.05
2022-11-20T11:16:29.339Z,7.76
2022-11-20T11:17:29.290Z,8.05
2022-11-20T11:18:29.282Z,8.49
2022-11-20T11:19:29.293Z,8.17
2022-11-20T11:20:29.247Z,7.66
2022-11-20T11:21:29.236Z,7.37
2022-11-20T11:22:29.248Z,7.76
2022-11-20T11:23:29.247Z,7.71
2022-11-20T11:24:43.486Z,7.77
2022-11-20T11:25:30.192Z,7.80
2022-11-20T11:26:29.231Z,8.60
2022-11-20T11:27:29.174Z,9.01
2022-11-20T11:28:29.215Z,8.89
2022-11-20T11:29:29.176Z,8.62
2022-11-20T11:30:29.158Z,8.80
2022-11-20T11:31:29.177Z,8.63
2022-11-20T11:32:29.169Z,8.60
2022-11-20T11:33:29.104Z,8.39
2022-11-20T11:34:29.120Z,8.95
2022-11-20T11:35:29.085Z,8.85
2022-11-20T11:36:29.108Z,8.83
2022-11-20T11:37:29.094Z,9.30
2022-11-20T11:38:29.069Z,9.36
2022-11-20T11:39:29.050Z,9.90
2022-11-20T11:40:29.032Z,9.55
2022-11-20T11:41:29.045Z,9.34
2022-11-20T11:42:29.029Z,9.57
2022-11-20T11:43:30.963Z,9.32
2022-11-20T11:44:29.005Z,9.22
2022-11-20T11:45:28.979Z,9.06
2022-11-20T11:46:29.028Z,8.90
2022-11-20T11:47:28.971Z,8.12
2022-11-20T11:48:28.982Z,8.05
2022-11-20T11:49:28.953Z,7.91
2022-11-20T11:50:28.963Z,7.55
2022-11-20T11:51:28.913Z,7.25
2022-11-20T11:52:28.900Z,7.01
2022-11-20T11:53:28.987Z,6.85
2022-11-20T11:54:28.949Z,6.89
2022-11-20T11:55:28.917Z,6.73
2022-11-20T11:56:28.884Z,6.73
2022-11-20T11:57:28.850Z,6.67
2022-11-20T11:58:28.855Z,6.61
2022-11-20T11:59:28.864Z,6.47
2022-11-20T12:00:28.866Z,6.50
2022-11-20T12:01:28.890Z,6.52
2022-11-20T12:02:28.864Z,6.53
2022-11-20T12:03:28.899Z,6.56
2022-11-20T12:04:28.812Z,6.56
2022-11-20T12:05:28.855Z,6.49
2022-11-20T12:06:28.765Z,6.43
2022-11-20T12:07:45.950Z,6.37
2022-11-20T12:08:29.824Z,6.35
2022-11-20T12:09:28.728Z,6.38
2022-11-20T12:10:28.725Z,6.31
2022-11-20T12:11:28.718Z,6.37
2022-11-20T12:12:28.783Z,6.25
2022-11-20T12:13:28.728Z,6.18
2022-11-20T12:14:28.685Z,6.12
2022-11-20T12:15:28.661Z,6.09
2022-11-20T12:16:28.665Z,6.03
2022-11-20T12:17:33.318Z,5.97
2022-11-20T12:18:28.722Z,5.95
2022-11-20T12:19:28.637Z,6.03
2022-11-20T12:20:28.609Z,6.05
2022-11-20T12:21:28.598Z,6.03
2022-11-20T12:22:28.586Z,6.11
2022-11-20T12:23:28.664Z,6.13
2022-11-20T12:24:36.833Z,6.24
2022-11-20T12:25:28.572Z,6.31
2022-11-20T12:26:28.555Z,6.28
2022-11-20T12:27:28.541Z,6.35
2022-11-20T12:28:28.527Z,6.38
2022-11-20T12:29:28.567Z,6.27
2022-11-20T12:30:28.613Z,6.37
2022-11-20T12:31:28.526Z,6.38
2022-11-20T12:32:28.549Z,6.30
2022-11-20T12:33:28.487Z,6.42
2022-11-20T12:34:28.492Z,6.43
2022-11-20T12:35:28.518Z,6.52
2022-11-20T12:36:28.499Z,6.61
2022-11-20T12:37:28.433Z,6.71
2022-11-20T12:38:28.451Z,6.67
2022-11-20T12:39:28.453Z,6.74
2022-11-20T12:40:28.439Z,6.81
2022-11-20T12:41:28.428Z,6.74
2022-11-20T12:42:28.437Z,6.89
2022-11-20T12:43:28.429Z,6.74
2022-11-20T12:44:28.400Z,6.60
2022-11-20T12:45:28.396Z,6.65
2022-11-20T12:46:28.417Z,6.78
2022-11-20T12:47:28.351Z,6.75
2022-11-20T12:48:28.355Z,6.71
2022-11-20T12:49:28.409Z,6.61
2022-11-20T12:50:28.357Z,6.75
2022-11-20T12:51:28.296Z,6.78
2022-11-20T12:52:28.333Z,6.79
2022-11-20T12:53:28.364Z,6.82
2022-11-20T12:54:28.294Z,6.78
2022-11-20T12:55:28.266Z,6.68
2022-11-20T12:56:28.265Z,6.73
2022-11-20T12:57:28.222Z,6.82
2022-11-20T12:58:28.219Z,6.68
2022-11-20T12:59:28.193Z,6.63
2022-11-20T13:00:28.210Z,6.67
2022-11-20T13:01:28.341Z,6.74
2022-11-20T13:02:28.175Z,6.57
2022-11-20T13:03:28.158Z,6.70
2022-11-20T13:04:28.149Z,6.81
2022-11-20T13:05:28.184Z,6.86
2022-11-20T13:06:28.122Z,7.11
2022-11-20T13:07:28.176Z,7.31
2022-11-20T13:08:28.157Z,7.22
2022-11-20T13:09:28.099Z,7.01
2022-11-20T13:10:28.085Z,7.16
2022-11-20T13:11:28.136Z,7.04
2022-11-20T13:12:28.095Z,7.26
2022-11-20T13:13:28.062Z,7.43
2022-11-20T13:14:28.822Z,7.13
2022-11-20T13:15:28.046Z,6.99
2022-11-20T13:16:28.034Z,6.83
2022-11-20T13:17:28.041Z,6.97